Aviation Digital Data Service (ADDS)

Output produced by METARs form (0813 UTC 26 April 2015)
found at http://www.aviationweather.gov/adds/metars/
 
KESN 260825Z AUTO 00000KT 10SM BKN080 07/07 A2971 RMK AO2 T00650065